BGGH

Details ICAO BGGH (GOH)
Name Nuuk Godthab
Region Greenland
Timezone America/Godthab (UTC-2.0)
Plans Departing 1230
Arriving 1575
Stats Elevation 283 ft / 86 m (AMSL)
Location 64.190900° -51.678100°
Runways 1
Magnetic Variation 24.672° W
Sunrise 2024-07-24 06:09:57 UTC / 2024-07-24 04:09:57 Local
Sunset 2024-07-25 00:58:45 UTC / 2024-07-24 22:58:45 Local
Advertisement - Login to hide

Runways

ID Width Length Bearing (true/mag) Surface Threshold Overrun Markings Lighting
05 98 ft / 30 m 3,113 ft / 949 m 18.37° / 43.04° ASPHALT 0 ft / 0 m 0 ft / 0 m APP EDGE THRESHOLD
23 98 ft / 30 m 3,113 ft / 949 m 198.37° / 223.04° ASPHALT 0 ft / 0 m 0 ft / 0 m APP EDGE THRESHOLD ALSF-I

Map

Weather


0- 5 10 15 20 25 30 35+ Temperature / °C

Clouds and Precipitation
Forecast for 2024-04-15 18:00 UTC. Updated 3 months ago

Ground ~20,000 ft ~40,000 ft Winds

METAR

BGGH 241450Z 21016KT 9999 FEW007 BKN050 04/03 Q1000

TAF

Not found

Frequencies

Tower 119.10 MHz Nuuk AFIS
Warning: Do not use this data for real-world aviation or navigation. No guarantee of current accuracy is given.